createdAt,value
2023-04-13T00:00:36.982Z,8.40
2023-04-13T00:03:04.767Z,8.40
2023-04-13T00:05:34.463Z,8.50
2023-04-13T00:08:03.414Z,8.40
2023-04-13T00:10:31.479Z,8.40
2023-04-13T00:12:58.329Z,8.40
2023-04-13T00:15:25.718Z,8.40
2023-04-13T00:17:54.027Z,8.20
2023-04-13T00:20:20.804Z,8.20
2023-04-13T00:22:48.460Z,8.10
2023-04-13T00:25:16.113Z,8.00
2023-04-13T00:27:44.109Z,8.00
2023-04-13T00:30:14.398Z,7.90
2023-04-13T00:32:45.080Z,7.90
2023-04-13T00:35:19.244Z,7.90
2023-04-13T00:37:49.972Z,7.90
2023-04-13T00:40:16.846Z,8.00
2023-04-13T00:42:45.418Z,7.90
2023-04-13T00:45:13.692Z,7.80
2023-04-13T00:47:41.938Z,7.80
2023-04-13T00:50:09.618Z,7.70
2023-04-13T00:52:38.336Z,7.70
2023-04-13T00:55:06.637Z,7.60
2023-04-13T00:57:34.338Z,7.60
2023-04-13T01:00:11.551Z,7.70
2023-04-13T01:08:32.102Z,7.70
2023-04-13T01:11:23.491Z,7.70
2023-04-13T01:14:13.246Z,7.70
2023-04-13T01:16:49.121Z,7.80
2023-04-13T01:19:35.528Z,7.70
2023-04-13T01:22:04.829Z,7.80
2023-04-13T01:24:53.800Z,7.80
2023-04-13T01:27:43.254Z,7.70
2023-04-13T01:30:21.911Z,7.70
2023-04-13T01:32:53.373Z,7.90
2023-04-13T01:35:22.798Z,7.80
2023-04-13T01:37:50.950Z,7.70
2023-04-13T01:40:19.198Z,7.70
2023-04-13T01:42:46.498Z,7.50
2023-04-13T01:45:19.673Z,7.50
2023-04-13T01:47:58.671Z,7.50
2023-04-13T01:50:31.935Z,7.50
2023-04-13T01:53:08.257Z,7.40
2023-04-13T01:55:43.876Z,7.40
2023-04-13T01:58:13.168Z,7.40
2023-04-13T02:00:41.703Z,7.40
2023-04-13T02:03:15.632Z,7.40
2023-04-13T02:05:42.798Z,7.40
2023-04-13T02:08:11.209Z,7.40
2023-04-13T02:10:39.424Z,7.40
2023-04-13T02:13:06.230Z,7.40
2023-04-13T02:15:40.619Z,7.40
2023-04-13T02:18:07.917Z,7.30
2023-04-13T02:20:42.963Z,7.40
2023-04-13T02:23:16.719Z,7.40
2023-04-13T02:25:48.168Z,7.50
2023-04-13T02:28:17.859Z,7.50
2023-04-13T02:30:45.004Z,7.40
2023-04-13T02:33:11.768Z,7.30
2023-04-13T02:35:39.136Z,7.30
2023-04-13T02:38:10.778Z,7.30
2023-04-13T02:40:39.022Z,7.20
2023-04-13T02:43:05.944Z,7.20
2023-04-13T02:45:33.069Z,7.20
2023-04-13T02:48:02.075Z,7.10
2023-04-13T02:50:28.805Z,7.10
2023-04-13T02:52:55.928Z,7.10
2023-04-13T02:55:23.159Z,7.10
2023-04-13T02:57:50.179Z,7.10
2023-04-13T03:00:17.216Z,7.20
2023-04-13T03:02:45.785Z,7.20
2023-04-13T03:05:13.046Z,7.10
2023-04-13T03:07:39.811Z,7.20
2023-04-13T03:10:09.069Z,7.30
2023-04-13T03:12:36.931Z,7.40
2023-04-13T03:15:04.840Z,7.30
2023-04-13T03:17:31.624Z,7.20
2023-04-13T03:19:58.886Z,7.30
2023-04-13T03:22:30.216Z,7.20
2023-04-13T03:24:57.297Z,7.10
2023-04-13T03:27:24.848Z,7.20
2023-04-13T03:29:51.542Z,7.30
2023-04-13T03:32:18.313Z,7.40
2023-04-13T03:34:45.686Z,7.40
2023-04-13T03:37:18.543Z,7.40
2023-04-13T03:39:45.622Z,7.40
2023-04-13T03:42:12.321Z,7.40
2023-04-13T03:44:39.028Z,7.40
2023-04-13T03:47:09.550Z,7.40
2023-04-13T03:49:36.373Z,7.40
2023-04-13T03:52:03.455Z,7.40
2023-04-13T03:54:30.102Z,7.40
2023-04-13T03:57:00.874Z,7.40
2023-04-13T03:59:27.844Z,7.40
2023-04-13T04:01:54.832Z,7.50
2023-04-13T04:04:23.277Z,7.50
2023-04-13T04:06:50.902Z,7.50
2023-04-13T04:09:18.053Z,7.50
2023-04-13T04:11:44.845Z,7.40
2023-04-13T04:14:11.746Z,7.50
2023-04-13T04:16:38.580Z,7.60
2023-04-13T04:19:07.132Z,7.50
2023-04-13T04:21:36.929Z,7.50
2023-04-13T04:24:06.232Z,7.50
2023-04-13T04:26:35.821Z,7.50
2023-04-13T04:29:03.027Z,7.50
2023-04-13T04:31:37.156Z,7.50
2023-04-13T04:34:04.684Z,7.50
2023-04-13T04:36:36.595Z,7.40
2023-04-13T04:39:04.673Z,7.50
2023-04-13T04:41:31.620Z,7.50
2023-04-13T04:44:02.994Z,7.50
2023-04-13T04:46:30.059Z,7.40
2023-04-13T04:49:00.756Z,7.50
2023-04-13T04:51:28.119Z,7.50
2023-04-13T04:53:54.913Z,7.40
2023-04-13T04:56:21.995Z,7.40
2023-04-13T04:58:48.774Z,7.40
2023-04-13T05:01:17.901Z,7.40
2023-04-13T05:03:45.390Z,7.30
2023-04-13T05:06:12.465Z,7.40
2023-04-13T05:08:39.342Z,7.40
2023-04-13T05:11:07.394Z,7.50
2023-04-13T05:13:34.434Z,7.40
2023-04-13T05:16:01.625Z,7.50
2023-04-13T05:18:33.226Z,7.40
2023-04-13T05:21:00.272Z,7.40
2023-04-13T05:23:27.303Z,7.40
2023-04-13T05:25:53.972Z,7.40
2023-04-13T05:28:21.857Z,7.40
2023-04-13T05:30:49.054Z,7.40
2023-04-13T05:33:17.240Z,7.50
2023-04-13T05:35:44.063Z,7.50
2023-04-13T05:38:10.855Z,7.40
2023-04-13T05:40:37.581Z,7.50
2023-04-13T05:43:04.321Z,7.50
2023-04-13T05:45:31.295Z,7.50
2023-04-13T05:47:58.184Z,7.50
2023-04-13T05:50:25.086Z,7.50
2023-04-13T05:52:52.304Z,7.60
2023-04-13T05:55:20.518Z,7.60
2023-04-13T05:57:47.248Z,7.60
2023-04-13T06:00:16.578Z,7.70
2023-04-13T06:02:43.583Z,7.70
2023-04-13T06:05:13.730Z,7.70
2023-04-13T06:07:43.553Z,7.80
2023-04-13T06:10:10.920Z,7.70
2023-04-13T06:12:37.987Z,7.80
2023-04-13T06:15:06.710Z,7.70
2023-04-13T06:17:37.678Z,7.80
2023-04-13T06:20:07.201Z,7.80
2023-04-13T06:22:34.383Z,7.80
2023-04-13T06:25:01.873Z,7.90
2023-04-13T06:27:29.315Z,7.90
2023-04-13T06:29:58.172Z,7.90
2023-04-13T06:32:25.228Z,7.90
2023-04-13T06:34:51.940Z,7.90
2023-04-13T06:37:19.419Z,7.90
2023-04-13T06:39:46.524Z,8.00
2023-04-13T06:42:15.398Z,8.00
2023-04-13T06:44:42.958Z,8.00
2023-04-13T06:47:09.918Z,8.10
2023-04-13T06:49:36.964Z,8.10
2023-04-13T06:52:03.976Z,8.10
2023-04-13T06:54:31.139Z,8.10
2023-04-13T06:56:58.178Z,8.10
2023-04-13T06:59:24.926Z,8.10
2023-04-13T07:01:51.649Z,8.10
2023-04-13T07:04:18.577Z,8.10
2023-04-13T07:06:46.346Z,8.10
2023-04-13T07:09:13.168Z,8.10
2023-04-13T07:11:40.197Z,8.20
2023-04-13T07:14:06.940Z,8.10
2023-04-13T07:16:33.717Z,8.20
2023-04-13T07:19:01.965Z,8.20
2023-04-13T07:21:28.823Z,8.20
2023-04-13T07:23:55.522Z,8.20
2023-04-13T07:26:26.161Z,8.20
2023-04-13T07:28:52.995Z,8.30
2023-04-13T07:31:21.384Z,8.40
2023-04-13T07:33:48.145Z,8.40
2023-04-13T07:36:14.884Z,8.40
2023-04-13T07:38:41.618Z,8.40
2023-04-13T07:41:08.925Z,8.40
2023-04-13T07:43:37.312Z,8.50
2023-04-13T07:46:11.981Z,8.50
2023-04-13T07:48:38.798Z,8.60
2023-04-13T07:51:05.819Z,8.60
2023-04-13T07:53:32.851Z,8.70
2023-04-13T07:55:59.569Z,8.70
2023-04-13T07:58:26.276Z,8.80
2023-04-13T08:00:53.020Z,8.90
2023-04-13T08:03:19.890Z,9.00
2023-04-13T08:05:47.344Z,9.00
2023-04-13T08:08:14.444Z,9.00
2023-04-13T08:10:41.543Z,9.10
2023-04-13T08:13:08.477Z,9.10
2023-04-13T08:15:35.393Z,9.30
2023-04-13T08:18:03.741Z,9.40
2023-04-13T08:20:30.662Z,9.60
2023-04-13T08:22:57.376Z,9.70
2023-04-13T08:25:24.149Z,9.80
2023-04-13T08:27:50.919Z,9.70
2023-04-13T08:30:17.744Z,9.90
2023-04-13T08:32:44.889Z,10.00
2023-04-13T08:35:11.663Z,10.00
2023-04-13T08:37:39.631Z,10.20
2023-04-13T08:40:07.833Z,10.40
2023-04-13T08:42:35.174Z,10.40
2023-04-13T08:45:03.883Z,10.30
2023-04-13T08:47:30.952Z,10.40
2023-04-13T08:49:59.292Z,10.40
2023-04-13T08:52:26.795Z,10.30
2023-04-13T08:54:55.894Z,10.40
2023-04-13T08:57:23.015Z,10.40
2023-04-13T08:59:53.186Z,10.40
2023-04-13T09:02:26.479Z,10.30
2023-04-13T09:04:55.144Z,10.30
2023-04-13T09:07:28.298Z,10.20
2023-04-13T09:09:59.801Z,10.10
2023-04-13T09:12:28.021Z,10.10
2023-04-13T09:14:55.221Z,10.10
2023-04-13T09:17:25.846Z,10.00
2023-04-13T09:19:53.244Z,10.10
2023-04-13T09:22:22.049Z,10.00
2023-04-13T09:24:49.681Z,10.00
2023-04-13T09:27:23.534Z,9.90
2023-04-13T09:29:55.709Z,9.90
2023-04-13T09:32:23.798Z,9.90
2023-04-13T09:35:08.529Z,10.00
2023-04-13T09:37:37.209Z,10.00
2023-04-13T09:40:14.559Z,9.90
2023-04-13T09:42:42.762Z,9.80
2023-04-13T09:45:10.033Z,9.80
2023-04-13T09:47:41.310Z,9.80
2023-04-13T09:50:40.537Z,9.80
2023-04-13T09:53:10.768Z,9.80
2023-04-13T09:55:38.848Z,9.80
2023-04-13T09:58:19.357Z,9.90
2023-04-13T10:00:46.523Z,9.90
2023-04-13T10:03:19.964Z,9.90
2023-04-13T10:08:21.821Z,10.00
2023-04-13T10:10:54.436Z,9.90
2023-04-13T10:13:26.202Z,10.00
2023-04-13T10:16:11.181Z,9.90
2023-04-13T10:19:00.145Z,9.90
2023-04-13T10:21:35.380Z,9.70
2023-04-13T10:24:11.421Z,9.60
2023-04-13T10:26:39.466Z,9.60
2023-04-13T10:29:08.289Z,9.50
2023-04-13T10:31:40.080Z,9.40
2023-04-13T10:34:08.078Z,9.40
2023-04-13T10:36:39.292Z,9.60
2023-04-13T10:39:06.493Z,9.70
2023-04-13T10:41:33.188Z,9.80
2023-04-13T10:44:07.815Z,10.00
2023-04-13T10:46:37.630Z,10.20
2023-04-13T10:49:04.785Z,10.30
2023-04-13T10:51:42.205Z,10.50
2023-04-13T10:54:10.042Z,10.80
2023-04-13T10:56:37.286Z,11.00
2023-04-13T10:59:04.630Z,11.00
2023-04-13T11:01:32.034Z,11.00
2023-04-13T11:04:08.899Z,11.10
2023-04-13T11:06:39.010Z,11.30
2023-04-13T11:09:12.969Z,11.40
2023-04-13T11:11:42.328Z,11.30
2023-04-13T11:14:09.092Z,11.40
2023-04-13T11:16:46.266Z,11.50
2023-04-13T11:19:13.600Z,11.50
2023-04-13T11:21:44.984Z,11.50
2023-04-13T11:24:14.441Z,11.50
2023-04-13T11:26:44.642Z,11.50
2023-04-13T11:29:23.401Z,11.30
2023-04-13T11:31:50.355Z,11.30
2023-04-13T11:34:31.469Z,11.30
2023-04-13T11:37:02.969Z,11.10
2023-04-13T11:39:32.376Z,11.20
2023-04-13T11:42:05.719Z,11.10
2023-04-13T11:44:36.146Z,11.20
2023-04-13T11:47:06.286Z,11.20
2023-04-13T11:49:34.940Z,11.20
2023-04-13T11:52:02.947Z,11.20
2023-04-13T11:54:31.343Z,11.20
2023-04-13T11:57:00.603Z,11.20
2023-04-13T11:59:30.306Z,11.20
2023-04-13T12:02:02.859Z,11.00
2023-04-13T12:04:40.477Z,10.80
2023-04-13T12:07:16.440Z,10.70
2023-04-13T12:15:13.904Z,10.00
2023-04-13T12:17:59.956Z,10.10
2023-04-13T12:20:40.391Z,9.50
2023-04-13T12:26:00.136Z,9.70
2023-04-13T12:28:34.933Z,9.80
2023-04-13T12:31:10.241Z,10.00
2023-04-13T12:33:37.782Z,10.00
2023-04-13T12:36:08.262Z,10.20
2023-04-13T12:38:34.983Z,10.40
2023-04-13T12:41:02.427Z,10.40
2023-04-13T12:43:29.692Z,10.40
2023-04-13T12:45:57.510Z,10.50
2023-04-13T12:48:24.195Z,10.60
2023-04-13T12:50:51.189Z,10.40
2023-04-13T12:53:17.937Z,10.20
2023-04-13T12:55:45.025Z,10.00
2023-04-13T12:58:12.217Z,10.00
2023-04-13T13:00:38.980Z,10.00
2023-04-13T13:03:13.622Z,10.40
2023-04-13T13:05:41.954Z,10.60
2023-04-13T13:08:09.220Z,10.50
2023-04-13T13:10:37.394Z,10.90
2023-04-13T13:13:06.397Z,11.00
2023-04-13T13:15:33.719Z,11.00
2023-04-13T13:18:03.962Z,11.00
2023-04-13T13:20:31.029Z,11.10
2023-04-13T13:22:58.280Z,11.20
2023-04-13T13:25:25.348Z,11.10
2023-04-13T13:30:21.900Z,11.20
2023-04-13T13:32:48.897Z,11.30
2023-04-13T13:35:15.736Z,11.50
2023-04-13T13:37:42.785Z,11.70
2023-04-13T13:40:13.433Z,11.80
2023-04-13T13:42:51.257Z,12.10
2023-04-13T13:45:19.050Z,11.70
2023-04-13T13:47:53.250Z,12.00
2023-04-13T13:50:23.832Z,12.20
2023-04-13T13:53:02.924Z,12.20
2023-04-13T13:55:31.884Z,12.30
2023-04-13T13:57:58.874Z,12.60
2023-04-13T14:00:26.100Z,12.90
2023-04-13T14:02:53.358Z,13.10
2023-04-13T14:05:21.885Z,13.20
2023-04-13T14:07:49.096Z,13.50
2023-04-13T14:10:16.144Z,13.50
2023-04-13T14:12:45.155Z,13.80
2023-04-13T14:15:13.109Z,14.10
2023-04-13T14:17:40.638Z,14.00
2023-04-13T14:20:15.681Z,14.10
2023-04-13T14:22:42.638Z,14.40
2023-04-13T14:25:10.546Z,14.60
2023-04-13T14:27:38.284Z,14.80
2023-04-13T14:30:05.698Z,14.80
2023-04-13T14:32:33.110Z,15.00
2023-04-13T14:35:00.639Z,15.00
2023-04-13T14:37:28.142Z,15.20
2023-04-13T14:39:55.642Z,15.10
2023-04-13T14:42:24.772Z,15.10
2023-04-13T14:44:52.174Z,15.30
2023-04-13T14:47:19.623Z,14.40
2023-04-13T14:49:47.426Z,14.80
2023-04-13T14:52:15.046Z,15.30
2023-04-13T14:54:42.427Z,15.40
2023-04-13T14:57:10.525Z,15.50
2023-04-13T14:59:37.445Z,15.60
2023-04-13T15:02:04.705Z,15.50
2023-04-13T15:04:32.421Z,15.40
2023-04-13T15:07:00.359Z,15.10
2023-04-13T15:09:27.399Z,15.20
2023-04-13T15:11:54.248Z,15.20
2023-04-13T15:14:21.604Z,14.40
2023-04-13T15:16:48.525Z,14.40
2023-04-13T15:19:15.515Z,14.10
2023-04-13T15:21:42.374Z,14.40
2023-04-13T15:24:10.618Z,14.30
2023-04-13T15:26:41.800Z,14.20
2023-04-13T15:29:09.961Z,14.20
2023-04-13T15:31:38.732Z,14.40
2023-04-13T15:34:08.553Z,14.50
2023-04-13T15:36:36.362Z,14.40
2023-04-13T15:39:04.689Z,14.00
2023-04-13T15:41:31.834Z,14.00
2023-04-13T15:44:00.250Z,13.80
2023-04-13T15:46:27.726Z,14.00
2023-04-13T15:48:55.383Z,14.20
2023-04-13T15:51:22.194Z,14.30
2023-04-13T15:53:48.944Z,14.00
2023-04-13T15:56:15.863Z,14.10
2023-04-13T15:58:42.694Z,13.90
2023-04-13T16:01:11.072Z,14.30
2023-04-13T16:03:40.351Z,14.40
2023-04-13T16:06:07.861Z,13.90
2023-04-13T16:08:34.624Z,13.60
2023-04-13T16:11:01.524Z,13.50
2023-04-13T16:13:45.077Z,13.70
2023-04-13T16:16:15.309Z,13.40
2023-04-13T16:18:42.125Z,12.90
2023-04-13T16:21:10.747Z,12.80
2023-04-13T16:23:37.531Z,13.20
2023-04-13T16:26:04.769Z,13.00
2023-04-13T16:28:31.609Z,13.10
2023-04-13T16:30:59.047Z,13.10
2023-04-13T16:33:27.166Z,12.90
2023-04-13T16:35:53.893Z,12.90
2023-04-13T16:38:20.917Z,13.00
2023-04-13T16:40:47.631Z,12.90
2023-04-13T16:43:14.366Z,12.90
2023-04-13T16:45:42.371Z,13.10
2023-04-13T16:48:09.226Z,13.20
2023-04-13T16:50:36.128Z,13.10
2023-04-13T16:53:02.846Z,13.10
2023-04-13T16:55:31.288Z,13.10
2023-04-13T16:57:58.214Z,13.10
2023-04-13T17:00:25.280Z,13.00
2023-04-13T17:02:52.095Z,13.00
2023-04-13T17:05:18.947Z,13.20
2023-04-13T17:07:48.138Z,13.20
2023-04-13T17:10:15.078Z,13.00
2023-04-13T17:12:41.888Z,13.00
2023-04-13T17:15:10.144Z,12.90
2023-04-13T17:17:38.180Z,12.70
2023-04-13T17:20:06.097Z,12.60
2023-04-13T17:22:33.446Z,12.30
2023-04-13T17:25:00.959Z,12.30
2023-04-13T17:27:27.655Z,12.10
2023-04-13T17:29:54.316Z,12.00
2023-04-13T17:32:22.153Z,11.90
2023-04-13T17:34:50.049Z,11.90
2023-04-13T17:37:17.726Z,11.90
2023-04-13T17:39:49.519Z,12.00
2023-04-13T17:42:16.699Z,12.00
2023-04-13T17:44:43.765Z,12.00
2023-04-13T17:47:11.033Z,11.90
2023-04-13T17:49:38.647Z,11.80
2023-04-13T17:52:05.905Z,11.80
2023-04-13T17:54:33.473Z,11.90
2023-04-13T17:57:01.612Z,11.90
2023-04-13T17:59:28.534Z,11.70
2023-04-13T18:01:56.315Z,11.50
2023-04-13T18:04:23.280Z,11.50
2023-04-13T18:06:50.512Z,11.50
2023-04-13T18:09:18.296Z,11.40
2023-04-13T18:11:46.589Z,11.20
2023-04-13T18:14:15.302Z,11.10
2023-04-13T18:16:42.492Z,11.00
2023-04-13T18:19:11.294Z,11.00
2023-04-13T18:21:38.071Z,11.10
2023-04-13T18:24:05.717Z,11.20
2023-04-13T18:26:32.568Z,11.20
2023-04-13T18:28:59.358Z,11.10
2023-04-13T18:31:26.110Z,11.00
2023-04-13T18:33:52.990Z,11.00
2023-04-13T18:36:19.728Z,11.10
2023-04-13T18:38:46.634Z,11.00
2023-04-13T18:41:13.701Z,10.90
2023-04-13T18:43:40.863Z,10.90
2023-04-13T18:46:08.376Z,10.90
2023-04-13T18:48:36.188Z,10.90
2023-04-13T18:51:03.609Z,10.80
2023-04-13T18:53:31.005Z,10.80
2023-04-13T18:55:58.605Z,10.80
2023-04-13T18:58:25.752Z,10.70
2023-04-13T19:00:52.393Z,10.60
2023-04-13T19:03:19.272Z,10.60
2023-04-13T19:05:46.351Z,10.50
2023-04-13T19:08:13.548Z,10.50
2023-04-13T19:10:41.484Z,10.40
2023-04-13T19:13:08.231Z,10.40
2023-04-13T19:15:35.742Z,10.30
2023-04-13T19:18:04.218Z,10.20
2023-04-13T19:20:31.302Z,10.20
2023-04-13T19:22:58.098Z,10.10
2023-04-13T19:25:24.955Z,10.10
2023-04-13T19:27:51.912Z,10.00
2023-04-13T19:30:19.534Z,9.90
2023-04-13T19:32:47.965Z,9.90
2023-04-13T19:35:14.991Z,9.90
2023-04-13T19:37:42.269Z,9.90
2023-04-13T19:40:09.941Z,9.90
2023-04-13T19:42:37.432Z,9.80
2023-04-13T19:45:04.522Z,9.80
2023-04-13T19:47:31.592Z,9.70
2023-04-13T19:49:58.344Z,9.70
2023-04-13T19:52:25.302Z,9.60
2023-04-13T19:54:52.264Z,9.60
2023-04-13T19:57:19.086Z,9.60
2023-04-13T19:59:46.019Z,9.50
2023-04-13T20:02:12.940Z,9.50
2023-04-13T20:04:40.355Z,9.40
2023-04-13T20:07:07.788Z,9.40
2023-04-13T20:09:34.525Z,9.30
2023-04-13T20:12:01.674Z,9.30
2023-04-13T20:14:28.383Z,9.20
2023-04-13T20:16:55.143Z,9.20
2023-04-13T20:19:23.725Z,9.10
2023-04-13T20:21:51.534Z,9.10
2023-04-13T20:24:18.801Z,9.00
2023-04-13T20:26:45.758Z,8.90
2023-04-13T20:29:13.080Z,8.90
2023-04-13T20:31:40.872Z,8.90
2023-04-13T20:34:09.588Z,8.80
2023-04-13T20:36:36.493Z,8.80
2023-04-13T20:39:03.438Z,8.80
2023-04-13T20:41:33.201Z,8.80
2023-04-13T20:44:00.422Z,8.90
2023-04-13T20:46:34.952Z,8.80
2023-04-13T20:49:05.232Z,8.80
2023-04-13T20:51:33.781Z,8.90
2023-04-13T20:54:02.659Z,8.80
2023-04-13T20:56:29.852Z,8.80
2023-04-13T20:58:58.118Z,8.70
2023-04-13T21:01:25.375Z,8.70
2023-04-13T21:03:52.904Z,8.70
2023-04-13T21:06:20.460Z,8.60
2023-04-13T21:08:48.474Z,8.60
2023-04-13T21:11:15.611Z,8.40
2023-04-13T21:13:42.430Z,8.10
2023-04-13T21:16:11.183Z,8.00
2023-04-13T21:18:37.866Z,7.90
2023-04-13T21:21:06.612Z,7.90
2023-04-13T21:23:36.499Z,8.20
2023-04-13T21:26:04.447Z,8.20
2023-04-13T21:28:31.097Z,8.30
2023-04-13T21:30:57.869Z,8.30
2023-04-13T21:33:24.548Z,8.40
2023-04-13T21:35:51.221Z,8.40
2023-04-13T21:38:17.914Z,8.30
2023-04-13T21:40:44.649Z,8.30
2023-04-13T21:43:11.351Z,8.30
2023-04-13T21:45:38.123Z,8.30
2023-04-13T21:48:05.501Z,8.10
2023-04-13T21:50:32.312Z,7.80
2023-04-13T21:52:58.973Z,7.70
2023-04-13T21:55:25.725Z,7.80
2023-04-13T21:57:52.506Z,7.70
2023-04-13T22:00:19.704Z,7.70
2023-04-13T22:02:46.674Z,7.80
2023-04-13T22:05:13.413Z,7.80
2023-04-13T22:07:43.261Z,7.70
2023-04-13T22:10:11.113Z,7.50
2023-04-13T22:12:38.283Z,7.70
2023-04-13T22:15:05.550Z,7.40
2023-04-13T22:17:33.882Z,7.30
2023-04-13T22:20:00.804Z,7.40
2023-04-13T22:22:28.098Z,7.40
2023-04-13T22:24:55.036Z,7.00
2023-04-13T22:27:22.126Z,6.90
2023-04-13T22:29:48.940Z,7.00
2023-04-13T22:32:16.798Z,7.10
2023-04-13T22:34:43.552Z,6.80
2023-04-13T22:37:13.195Z,6.90
2023-04-13T22:39:41.241Z,6.70
2023-04-13T22:42:08.153Z,6.70
2023-04-13T22:44:35.681Z,6.70
2023-04-13T22:47:03.432Z,6.80
2023-04-13T22:49:30.681Z,6.80
2023-04-13T22:51:57.928Z,6.90
2023-04-13T22:54:24.742Z,6.90
2023-04-13T22:56:52.839Z,7.00
2023-04-13T22:59:19.574Z,7.20
2023-04-13T23:01:46.620Z,7.30
2023-04-13T23:04:15.823Z,7.00
2023-04-13T23:06:46.555Z,7.10
2023-04-13T23:09:18.618Z,6.90
2023-04-13T23:11:45.347Z,6.80
2023-04-13T23:14:14.541Z,6.80
2023-04-13T23:16:43.997Z,6.70
2023-04-13T23:19:10.891Z,6.90
2023-04-13T23:21:38.706Z,6.80
2023-04-13T23:24:05.860Z,6.80
2023-04-13T23:26:32.914Z,7.00
2023-04-13T23:28:59.877Z,7.10
2023-04-13T23:31:27.035Z,7.10
2023-04-13T23:33:55.217Z,7.00
2023-04-13T23:36:22.172Z,6.90
2023-04-13T23:38:49.077Z,7.10
2023-04-13T23:41:17.577Z,6.90
2023-04-13T23:43:44.307Z,6.80
2023-04-13T23:46:11.123Z,6.60
2023-04-13T23:48:38.096Z,6.60
2023-04-13T23:51:04.846Z,6.50
2023-04-13T23:53:31.601Z,6.20
2023-04-13T23:55:58.569Z,6.20
2023-04-13T23:58:25.313Z,6.20
